sensor_id;sensor_type;location;lat;lon;timestamp;temperature;humidity
14771;DHT22;7477;45.222;5.688;2023-05-27T00:01:07;19.90;99.90
14771;DHT22;7477;45.222;5.688;2023-05-27T00:04:26;19.90;99.90
14771;DHT22;7477;45.222;5.688;2023-05-27T00:07:45;19.90;99.90
14771;DHT22;7477;45.222;5.688;2023-05-27T00:11:04;19.80;99.90
14771;DHT22;7477;45.222;5.688;2023-05-27T00:14:24;19.70;99.90
14771;DHT22;7477;45.222;5.688;2023-05-27T00:17:43;19.70;99.90
14771;DHT22;7477;45.222;5.688;2023-05-27T00:21:03;19.60;99.90
14771;DHT22;7477;45.222;5.688;2023-05-27T00:24:23;19.60;99.90
14771;DHT22;7477;45.222;5.688;2023-05-27T00:27:43;19.50;99.90
14771;DHT22;7477;45.222;5.688;2023-05-27T00:31:02;19.40;99.90
14771;DHT22;7477;45.222;5.688;2023-05-27T00:34:21;19.40;99.90
14771;DHT22;7477;45.222;5.688;2023-05-27T00:37:41;19.30;99.90
14771;DHT22;7477;45.222;5.688;2023-05-27T00:41:03;19.40;99.90
14771;DHT22;7477;45.222;5.688;2023-05-27T00:44:23;19.30;99.90
14771;DHT22;7477;45.222;5.688;2023-05-27T00:47:42;19.30;99.90
14771;DHT22;7477;45.222;5.688;2023-05-27T00:51:01;19.20;99.90
14771;DHT22;7477;45.222;5.688;2023-05-27T00:54:21;19.10;99.90
14771;DHT22;7477;45.222;5.688;2023-05-27T00:57:40;19.40;99.90
14771;DHT22;7477;45.222;5.688;2023-05-27T01:01:04;20.10;99.90
14771;DHT22;7477;45.222;5.688;2023-05-27T01:04:25;20.30;99.90
14771;DHT22;7477;45.222;5.688;2023-05-27T01:08:17;20.30;99.90
14771;DHT22;7477;45.222;5.688;2023-05-27T01:11:52;19.80;99.90
14771;DHT22;7477;45.222;5.688;2023-05-27T01:15:15;19.60;99.90
14771;DHT22;7477;45.222;5.688;2023-05-27T01:18:35;19.30;99.90
14771;DHT22;7477;45.222;5.688;2023-05-27T01:21:54;19.20;99.90
14771;DHT22;7477;45.222;5.688;2023-05-27T01:25:16;19.20;99.90
14771;DHT22;7477;45.222;5.688;2023-05-27T01:28:35;19.10;99.90
14771;DHT22;7477;45.222;5.688;2023-05-27T01:31:57;19.00;99.90
14771;DHT22;7477;45.222;5.688;2023-05-27T01:35:25;18.90;99.90
14771;DHT22;7477;45.222;5.688;2023-05-27T01:38:47;18.90;99.90
14771;DHT22;7477;45.222;5.688;2023-05-27T01:42:08;18.80;99.90
14771;DHT22;7477;45.222;5.688;2023-05-27T01:45:28;18.80;99.90
14771;DHT22;7477;45.222;5.688;2023-05-27T01:48:48;18.80;99.90
14771;DHT22;7477;45.222;5.688;2023-05-27T01:52:07;18.70;99.90
14771;DHT22;7477;45.222;5.688;2023-05-27T01:55:27;18.60;99.90
14771;DHT22;7477;45.222;5.688;2023-05-27T01:58:46;18.60;99.90
14771;DHT22;7477;45.222;5.688;2023-05-27T02:02:06;18.40;99.90
14771;DHT22;7477;45.222;5.688;2023-05-27T02:05:25;18.40;99.90
14771;DHT22;7477;45.222;5.688;2023-05-27T02:08:44;18.40;99.90
14771;DHT22;7477;45.222;5.688;2023-05-27T02:12:03;18.30;99.90
14771;DHT22;7477;45.222;5.688;2023-05-27T02:15:24;18.30;99.90
14771;DHT22;7477;45.222;5.688;2023-05-27T02:18:45;18.30;99.90
14771;DHT22;7477;45.222;5.688;2023-05-27T02:22:04;18.20;99.90
14771;DHT22;7477;45.222;5.688;2023-05-27T02:25:24;18.20;99.90
14771;DHT22;7477;45.222;5.688;2023-05-27T02:28:43;18.20;99.90
14771;DHT22;7477;45.222;5.688;2023-05-27T02:32:03;18.20;99.90
14771;DHT22;7477;45.222;5.688;2023-05-27T02:35:22;18.10;99.90
14771;DHT22;7477;45.222;5.688;2023-05-27T02:38:41;18.10;99.90
14771;DHT22;7477;45.222;5.688;2023-05-27T02:42:01;18.00;99.90
14771;DHT22;7477;45.222;5.688;2023-05-27T02:45:20;18.00;99.90
14771;DHT22;7477;45.222;5.688;2023-05-27T02:48:39;18.30;99.90
14771;DHT22;7477;45.222;5.688;2023-05-27T02:51:58;18.80;99.90
14771;DHT22;7477;45.222;5.688;2023-05-27T02:55:17;18.90;99.90
14771;DHT22;7477;45.222;5.688;2023-05-27T02:58:36;18.80;99.90
14771;DHT22;7477;45.222;5.688;2023-05-27T03:01:56;19.00;99.90
14771;DHT22;7477;45.222;5.688;2023-05-27T03:05:16;18.60;99.90
14771;DHT22;7477;45.222;5.688;2023-05-27T03:08:36;18.30;99.90
14771;DHT22;7477;45.222;5.688;2023-05-27T03:11:55;18.20;99.90
14771;DHT22;7477;45.222;5.688;2023-05-27T03:15:15;18.20;99.90
14771;DHT22;7477;45.222;5.688;2023-05-27T03:18:34;18.30;99.90
14771;DHT22;7477;45.222;5.688;2023-05-27T03:21:53;18.40;99.90
14771;DHT22;7477;45.222;5.688;2023-05-27T03:25:12;18.60;99.90
14771;DHT22;7477;45.222;5.688;2023-05-27T03:28:31;18.90;99.90
14771;DHT22;7477;45.222;5.688;2023-05-27T03:31:50;18.80;99.90
14771;DHT22;7477;45.222;5.688;2023-05-27T03:35:10;18.60;99.90
14771;DHT22;7477;45.222;5.688;2023-05-27T03:38:29;18.30;99.90
14771;DHT22;7477;45.222;5.688;2023-05-27T03:41:48;18.10;99.90
14771;DHT22;7477;45.222;5.688;2023-05-27T03:45:07;18.10;99.90
14771;DHT22;7477;45.222;5.688;2023-05-27T03:48:27;18.30;99.90
14771;DHT22;7477;45.222;5.688;2023-05-27T03:51:46;18.40;99.90
14771;DHT22;7477;45.222;5.688;2023-05-27T03:55:06;18.20;99.90
14771;DHT22;7477;45.222;5.688;2023-05-27T03:58:25;18.10;99.90
14771;DHT22;7477;45.222;5.688;2023-05-27T04:01:45;18.00;99.90
14771;DHT22;7477;45.222;5.688;2023-05-27T04:05:05;17.90;99.90
14771;DHT22;7477;45.222;5.688;2023-05-27T04:08:24;17.90;99.90
14771;DHT22;7477;45.222;5.688;2023-05-27T04:11:46;17.80;99.90
14771;DHT22;7477;45.222;5.688;2023-05-27T04:15:07;17.70;99.90
14771;DHT22;7477;45.222;5.688;2023-05-27T04:18:26;17.80;99.90
14771;DHT22;7477;45.222;5.688;2023-05-27T04:21:45;17.90;99.90
14771;DHT22;7477;45.222;5.688;2023-05-27T04:25:05;17.80;99.90
14771;DHT22;7477;45.222;5.688;2023-05-27T04:28:24;18.10;99.90
14771;DHT22;7477;45.222;5.688;2023-05-27T04:31:44;18.30;99.90
14771;DHT22;7477;45.222;5.688;2023-05-27T04:35:05;18.20;99.90
14771;DHT22;7477;45.222;5.688;2023-05-27T04:38:26;18.20;99.90
14771;DHT22;7477;45.222;5.688;2023-05-27T04:41:50;17.90;99.90
14771;DHT22;7477;45.222;5.688;2023-05-27T04:45:10;17.80;99.90
14771;DHT22;7477;45.222;5.688;2023-05-27T04:48:30;17.70;99.90
14771;DHT22;7477;45.222;5.688;2023-05-27T04:51:49;17.60;99.90
14771;DHT22;7477;45.222;5.688;2023-05-27T04:55:09;17.60;99.90
14771;DHT22;7477;45.222;5.688;2023-05-27T04:58:29;17.50;99.90
14771;DHT22;7477;45.222;5.688;2023-05-27T05:01:49;17.50;99.90
14771;DHT22;7477;45.222;5.688;2023-05-27T05:05:29;17.80;99.90
14771;DHT22;7477;45.222;5.688;2023-05-27T05:08:49;18.40;99.90
14771;DHT22;7477;45.222;5.688;2023-05-27T05:12:08;18.20;99.90
14771;DHT22;7477;45.222;5.688;2023-05-27T05:15:28;18.50;99.90
14771;DHT22;7477;45.222;5.688;2023-05-27T05:18:47;18.70;99.90
14771;DHT22;7477;45.222;5.688;2023-05-27T05:22:06;18.90;99.90
14771;DHT22;7477;45.222;5.688;2023-05-27T05:25:26;19.00;99.90
14771;DHT22;7477;45.222;5.688;2023-05-27T05:28:45;18.90;99.90
14771;DHT22;7477;45.222;5.688;2023-05-27T05:32:05;19.10;99.90
14771;DHT22;7477;45.222;5.688;2023-05-27T05:35:24;18.80;99.90
14771;DHT22;7477;45.222;5.688;2023-05-27T05:38:43;18.60;99.90
14771;DHT22;7477;45.222;5.688;2023-05-27T05:42:03;18.50;99.90
14771;DHT22;7477;45.222;5.688;2023-05-27T05:45:22;18.40;99.90
14771;DHT22;7477;45.222;5.688;2023-05-27T05:48:41;18.20;99.90
14771;DHT22;7477;45.222;5.688;2023-05-27T05:52:00;18.10;99.90
14771;DHT22;7477;45.222;5.688;2023-05-27T05:55:19;18.30;99.90
14771;DHT22;7477;45.222;5.688;2023-05-27T05:58:39;18.30;99.90
14771;DHT22;7477;45.222;5.688;2023-05-27T06:01:59;18.20;99.90
14771;DHT22;7477;45.222;5.688;2023-05-27T06:05:18;18.30;99.90
14771;DHT22;7477;45.222;5.688;2023-05-27T06:08:37;18.10;99.90
14771;DHT22;7477;45.222;5.688;2023-05-27T06:11:56;18.00;99.90
14771;DHT22;7477;45.222;5.688;2023-05-27T06:15:15;18.10;99.90
14771;DHT22;7477;45.222;5.688;2023-05-27T06:18:34;18.20;99.90
14771;DHT22;7477;45.222;5.688;2023-05-27T06:21:53;18.20;99.90
14771;DHT22;7477;45.222;5.688;2023-05-27T06:25:13;18.30;99.90
14771;DHT22;7477;45.222;5.688;2023-05-27T06:28:32;18.40;99.90
14771;DHT22;7477;45.222;5.688;2023-05-27T06:31:51;18.60;99.90
14771;DHT22;7477;45.222;5.688;2023-05-27T06:35:10;18.70;99.90
14771;DHT22;7477;45.222;5.688;2023-05-27T06:38:29;18.90;99.90
14771;DHT22;7477;45.222;5.688;2023-05-27T06:41:48;18.80;99.90
14771;DHT22;7477;45.222;5.688;2023-05-27T06:45:08;18.90;99.90
14771;DHT22;7477;45.222;5.688;2023-05-27T06:48:27;19.10;99.90
14771;DHT22;7477;45.222;5.688;2023-05-27T06:51:46;19.00;99.90
14771;DHT22;7477;45.222;5.688;2023-05-27T06:55:06;19.10;99.90
14771;DHT22;7477;45.222;5.688;2023-05-27T06:58:25;19.20;99.90
14771;DHT22;7477;45.222;5.688;2023-05-27T07:01:44;19.30;99.90
14771;DHT22;7477;45.222;5.688;2023-05-27T07:05:04;19.10;99.90
14771;DHT22;7477;45.222;5.688;2023-05-27T07:08:24;18.90;99.90
14771;DHT22;7477;45.222;5.688;2023-05-27T07:11:43;18.80;99.90
14771;DHT22;7477;45.222;5.688;2023-05-27T07:15:03;19.00;99.90
14771;DHT22;7477;45.222;5.688;2023-05-27T07:18:22;19.10;99.90
14771;DHT22;7477;45.222;5.688;2023-05-27T07:21:42;19.10;99.90
14771;DHT22;7477;45.222;5.688;2023-05-27T07:25:01;19.10;99.90
14771;DHT22;7477;45.222;5.688;2023-05-27T07:28:21;19.10;99.90
14771;DHT22;7477;45.222;5.688;2023-05-27T07:31:40;19.20;99.90
14771;DHT22;7477;45.222;5.688;2023-05-27T07:34:59;19.10;99.90
14771;DHT22;7477;45.222;5.688;2023-05-27T07:38:18;19.20;99.90
14771;DHT22;7477;45.222;5.688;2023-05-27T07:41:37;19.20;99.90
14771;DHT22;7477;45.222;5.688;2023-05-27T07:44:56;19.20;99.90
14771;DHT22;7477;45.222;5.688;2023-05-27T07:48:15;19.10;99.90
14771;DHT22;7477;45.222;5.688;2023-05-27T07:51:34;19.10;99.90
14771;DHT22;7477;45.222;5.688;2023-05-27T07:54:54;19.10;99.90
14771;DHT22;7477;45.222;5.688;2023-05-27T07:58:15;19.30;99.90
14771;DHT22;7477;45.222;5.688;2023-05-27T08:01:34;19.30;99.90
14771;DHT22;7477;45.222;5.688;2023-05-27T08:04:54;19.30;99.90
14771;DHT22;7477;45.222;5.688;2023-05-27T08:08:13;19.40;99.90
14771;DHT22;7477;45.222;5.688;2023-05-27T08:11:33;19.30;99.90
14771;DHT22;7477;45.222;5.688;2023-05-27T08:14:52;19.40;99.90
14771;DHT22;7477;45.222;5.688;2023-05-27T08:18:12;19.40;99.90
14771;DHT22;7477;45.222;5.688;2023-05-27T08:21:31;19.40;99.90
14771;DHT22;7477;45.222;5.688;2023-05-27T08:24:50;19.30;99.90
14771;DHT22;7477;45.222;5.688;2023-05-27T08:28:09;19.40;99.90
14771;DHT22;7477;45.222;5.688;2023-05-27T08:31:29;19.30;99.90
14771;DHT22;7477;45.222;5.688;2023-05-27T08:34:48;19.40;99.90
14771;DHT22;7477;45.222;5.688;2023-05-27T08:38:07;19.30;99.90
14771;DHT22;7477;45.222;5.688;2023-05-27T08:41:27;19.30;99.90
14771;DHT22;7477;45.222;5.688;2023-05-27T08:44:47;19.40;99.90
14771;DHT22;7477;45.222;5.688;2023-05-27T08:48:08;19.40;99.90
14771;DHT22;7477;45.222;5.688;2023-05-27T08:51:28;19.40;99.90
14771;DHT22;7477;45.222;5.688;2023-05-27T08:54:48;19.40;99.90
14771;DHT22;7477;45.222;5.688;2023-05-27T08:58:09;19.30;99.90
14771;DHT22;7477;45.222;5.688;2023-05-27T09:01:30;19.30;99.90
14771;DHT22;7477;45.222;5.688;2023-05-27T09:04:50;19.40;99.90
14771;DHT22;7477;45.222;5.688;2023-05-27T09:08:10;19.40;99.90
14771;DHT22;7477;45.222;5.688;2023-05-27T09:11:29;19.40;99.90
14771;DHT22;7477;45.222;5.688;2023-05-27T09:14:53;19.50;99.90
14771;DHT22;7477;45.222;5.688;2023-05-27T09:18:13;19.50;99.90
14771;DHT22;7477;45.222;5.688;2023-05-27T09:21:32;19.50;99.90
14771;DHT22;7477;45.222;5.688;2023-05-27T09:24:52;19.50;99.90
14771;DHT22;7477;45.222;5.688;2023-05-27T09:28:20;19.60;99.90
14771;DHT22;7477;45.222;5.688;2023-05-27T09:31:41;19.60;99.90
14771;DHT22;7477;45.222;5.688;2023-05-27T09:35:01;19.60;99.90
14771;DHT22;7477;45.222;5.688;2023-05-27T09:38:20;19.60;99.90
14771;DHT22;7477;45.222;5.688;2023-05-27T09:41:40;19.60;99.90
14771;DHT22;7477;45.222;5.688;2023-05-27T09:44:59;19.50;99.90
14771;DHT22;7477;45.222;5.688;2023-05-27T09:48:23;19.60;99.90
14771;DHT22;7477;45.222;5.688;2023-05-27T09:51:43;19.60;99.90
14771;DHT22;7477;45.222;5.688;2023-05-27T09:55:06;19.50;99.90
14771;DHT22;7477;45.222;5.688;2023-05-27T09:58:26;19.50;99.90
14771;DHT22;7477;45.222;5.688;2023-05-27T10:01:47;19.70;99.90
14771;DHT22;7477;45.222;5.688;2023-05-27T10:05:07;19.70;99.90
14771;DHT22;7477;45.222;5.688;2023-05-27T10:08:26;19.80;99.90
14771;DHT22;7477;45.222;5.688;2023-05-27T10:11:46;19.70;99.90
14771;DHT22;7477;45.222;5.688;2023-05-27T10:15:06;19.60;99.90
14771;DHT22;7477;45.222;5.688;2023-05-27T10:18:29;19.60;99.90
14771;DHT22;7477;45.222;5.688;2023-05-27T10:21:49;19.70;99.90
14771;DHT22;7477;45.222;5.688;2023-05-27T10:25:12;19.70;99.90
14771;DHT22;7477;45.222;5.688;2023-05-27T10:28:36;19.70;99.90
14771;DHT22;7477;45.222;5.688;2023-05-27T10:31:56;19.70;99.90
14771;DHT22;7477;45.222;5.688;2023-05-27T10:35:16;19.70;99.90
14771;DHT22;7477;45.222;5.688;2023-05-27T10:38:37;19.70;99.90
14771;DHT22;7477;45.222;5.688;2023-05-27T10:41:57;19.80;99.90
14771;DHT22;7477;45.222;5.688;2023-05-27T10:45:17;19.70;99.90
14771;DHT22;7477;45.222;5.688;2023-05-27T10:48:37;20.10;99.90
14771;DHT22;7477;45.222;5.688;2023-05-27T10:51:59;20.30;99.90
14771;DHT22;7477;45.222;5.688;2023-05-27T10:55:20;20.60;99.90
14771;DHT22;7477;45.222;5.688;2023-05-27T10:58:40;20.20;99.90
14771;DHT22;7477;45.222;5.688;2023-05-27T11:01:59;20.10;99.90
14771;DHT22;7477;45.222;5.688;2023-05-27T11:05:19;20.90;99.90
14771;DHT22;7477;45.222;5.688;2023-05-27T11:08:39;20.50;99.90
14771;DHT22;7477;45.222;5.688;2023-05-27T11:12:01;20.30;99.90
14771;DHT22;7477;45.222;5.688;2023-05-27T11:15:24;20.10;99.90
14771;DHT22;7477;45.222;5.688;2023-05-27T11:18:46;20.20;99.90
14771;DHT22;7477;45.222;5.688;2023-05-27T11:22:08;20.60;99.90
14771;DHT22;7477;45.222;5.688;2023-05-27T11:25:27;20.40;99.90
14771;DHT22;7477;45.222;5.688;2023-05-27T11:28:57;21.10;99.90
14771;DHT22;7477;45.222;5.688;2023-05-27T11:32:17;20.80;99.90
14771;DHT22;7477;45.222;5.688;2023-05-27T11:35:36;21.60;99.90
14771;DHT22;7477;45.222;5.688;2023-05-27T11:38:57;22.20;99.90
14771;DHT22;7477;45.222;5.688;2023-05-27T11:42:23;21.60;99.90
14771;DHT22;7477;45.222;5.688;2023-05-27T11:45:43;21.80;99.90
14771;DHT22;7477;45.222;5.688;2023-05-27T11:49:04;22.20;99.90
14771;DHT22;7477;45.222;5.688;2023-05-27T11:52:27;21.90;99.90
14771;DHT22;7477;45.222;5.688;2023-05-27T11:55:46;22.00;99.90
14771;DHT22;7477;45.222;5.688;2023-05-27T11:59:05;21.80;99.90
14771;DHT22;7477;45.222;5.688;2023-05-27T12:02:24;22.70;99.90
14771;DHT22;7477;45.222;5.688;2023-05-27T12:05:43;23.50;99.90
14771;DHT22;7477;45.222;5.688;2023-05-27T12:09:06;23.90;99.90
14771;DHT22;7477;45.222;5.688;2023-05-27T12:12:26;23.70;99.90
14771;DHT22;7477;45.222;5.688;2023-05-27T12:15:45;23.20;99.90
14771;DHT22;7477;45.222;5.688;2023-05-27T12:19:04;23.70;99.90
14771;DHT22;7477;45.222;5.688;2023-05-27T12:22:23;23.50;99.90
14771;DHT22;7477;45.222;5.688;2023-05-27T12:25:42;24.10;99.90
14771;DHT22;7477;45.222;5.688;2023-05-27T12:29:02;24.20;99.90
14771;DHT22;7477;45.222;5.688;2023-05-27T12:32:21;24.40;99.90
14771;DHT22;7477;45.222;5.688;2023-05-27T12:35:40;24.50;99.90
14771;DHT22;7477;45.222;5.688;2023-05-27T12:39:00;24.60;99.90
14771;DHT22;7477;45.222;5.688;2023-05-27T12:42:19;24.80;99.90
14771;DHT22;7477;45.222;5.688;2023-05-27T12:45:38;24.60;99.90
14771;DHT22;7477;45.222;5.688;2023-05-27T12:48:57;24.60;99.90
14771;DHT22;7477;45.222;5.688;2023-05-27T12:52:16;24.50;99.90
14771;DHT22;7477;45.222;5.688;2023-05-27T12:55:36;24.50;99.90
14771;DHT22;7477;45.222;5.688;2023-05-27T12:58:55;24.70;99.90
14771;DHT22;7477;45.222;5.688;2023-05-27T13:02:15;24.80;99.90
14771;DHT22;7477;45.222;5.688;2023-05-27T13:05:34;24.90;99.90
14771;DHT22;7477;45.222;5.688;2023-05-27T13:08:53;24.90;99.90
14771;DHT22;7477;45.222;5.688;2023-05-27T13:12:13;25.40;99.90
14771;DHT22;7477;45.222;5.688;2023-05-27T13:15:32;25.30;99.90
14771;DHT22;7477;45.222;5.688;2023-05-27T13:18:52;25.30;99.90
14771;DHT22;7477;45.222;5.688;2023-05-27T13:22:11;25.30;99.90
14771;DHT22;7477;45.222;5.688;2023-05-27T13:25:30;25.20;99.90
14771;DHT22;7477;45.222;5.688;2023-05-27T13:28:50;25.10;99.90
14771;DHT22;7477;45.222;5.688;2023-05-27T13:32:09;25.40;99.90
14771;DHT22;7477;45.222;5.688;2023-05-27T13:35:29;25.40;99.90
14771;DHT22;7477;45.222;5.688;2023-05-27T13:38:48;25.50;99.90
14771;DHT22;7477;45.222;5.688;2023-05-27T13:42:08;25.60;99.80
14771;DHT22;7477;45.222;5.688;2023-05-27T13:45:27;25.70;99.80
14771;DHT22;7477;45.222;5.688;2023-05-27T13:48:46;26.20;97.50
14771;DHT22;7477;45.222;5.688;2023-05-27T13:52:05;25.90;97.90
14771;DHT22;7477;45.222;5.688;2023-05-27T13:55:25;25.50;99.00
14771;DHT22;7477;45.222;5.688;2023-05-27T13:58:44;26.00;98.90
14771;DHT22;7477;45.222;5.688;2023-05-27T14:02:03;26.10;98.40
14771;DHT22;7477;45.222;5.688;2023-05-27T14:05:25;26.40;97.00
14771;DHT22;7477;45.222;5.688;2023-05-27T14:08:45;26.50;95.90
14771;DHT22;7477;45.222;5.688;2023-05-27T14:12:05;26.50;95.40
14771;DHT22;7477;45.222;5.688;2023-05-27T14:15:24;26.40;96.50
14771;DHT22;7477;45.222;5.688;2023-05-27T14:18:46;26.50;96.70
14771;DHT22;7477;45.222;5.688;2023-05-27T14:22:06;26.80;95.00
14771;DHT22;7477;45.222;5.688;2023-05-27T14:25:25;26.50;95.90
14771;DHT22;7477;45.222;5.688;2023-05-27T14:28:44;26.80;95.30
14771;DHT22;7477;45.222;5.688;2023-05-27T14:32:03;26.90;95.10
14771;DHT22;7477;45.222;5.688;2023-05-27T14:35:23;26.70;95.70
14771;DHT22;7477;45.222;5.688;2023-05-27T14:38:42;27.00;95.30
14771;DHT22;7477;45.222;5.688;2023-05-27T14:42:03;27.30;94.30
14771;DHT22;7477;45.222;5.688;2023-05-27T14:45:22;27.20;94.70
14771;DHT22;7477;45.222;5.688;2023-05-27T14:48:42;27.10;94.00
14771;DHT22;7477;45.222;5.688;2023-05-27T14:52:01;27.30;93.70
14771;DHT22;7477;45.222;5.688;2023-05-27T14:55:20;27.30;94.00
14771;DHT22;7477;45.222;5.688;2023-05-27T14:58:40;27.40;93.00
14771;DHT22;7477;45.222;5.688;2023-05-27T15:01:59;27.50;92.60
14771;DHT22;7477;45.222;5.688;2023-05-27T15:05:18;27.20;93.60
14771;DHT22;7477;45.222;5.688;2023-05-27T15:08:38;27.30;93.60
14771;DHT22;7477;45.222;5.688;2023-05-27T15:11:58;27.20;93.30
14771;DHT22;7477;45.222;5.688;2023-05-27T15:15:18;26.80;93.80
14771;DHT22;7477;45.222;5.688;2023-05-27T15:18:39;26.90;93.60
14771;DHT22;7477;45.222;5.688;2023-05-27T15:21:58;26.90;93.80
14771;DHT22;7477;45.222;5.688;2023-05-27T15:25:17;27.30;93.60
14771;DHT22;7477;45.222;5.688;2023-05-27T15:28:37;27.10;93.10
14771;DHT22;7477;45.222;5.688;2023-05-27T15:31:56;27.60;92.30
14771;DHT22;7477;45.222;5.688;2023-05-27T15:35:15;27.50;92.60
14771;DHT22;7477;45.222;5.688;2023-05-27T15:38:35;27.80;93.10
14771;DHT22;7477;45.222;5.688;2023-05-27T15:41:54;27.70;92.30
14771;DHT22;7477;45.222;5.688;2023-05-27T15:45:13;27.60;93.00
14771;DHT22;7477;45.222;5.688;2023-05-27T15:48:34;27.70;92.30
14771;DHT22;7477;45.222;5.688;2023-05-27T15:51:53;27.70;93.10
14771;DHT22;7477;45.222;5.688;2023-05-27T15:55:12;26.40;94.00
14771;DHT22;7477;45.222;5.688;2023-05-27T15:58:31;27.00;94.00
14771;DHT22;7477;45.222;5.688;2023-05-27T16:01:50;26.70;94.20
14771;DHT22;7477;45.222;5.688;2023-05-27T16:05:09;26.40;94.70
14771;DHT22;7477;45.222;5.688;2023-05-27T16:08:33;25.60;95.40
14771;DHT22;7477;45.222;5.688;2023-05-27T16:11:52;24.80;96.50
14771;DHT22;7477;45.222;5.688;2023-05-27T16:15:12;24.30;97.30
14771;DHT22;7477;45.222;5.688;2023-05-27T16:18:31;24.60;97.50
14771;DHT22;7477;45.222;5.688;2023-05-27T16:21:50;24.60;97.40
14771;DHT22;7477;45.222;5.688;2023-05-27T16:25:09;24.80;97.30
14771;DHT22;7477;45.222;5.688;2023-05-27T16:28:28;24.40;97.30
14771;DHT22;7477;45.222;5.688;2023-05-27T16:31:47;24.10;98.00
14771;DHT22;7477;45.222;5.688;2023-05-27T16:35:07;24.00;98.30
14771;DHT22;7477;45.222;5.688;2023-05-27T16:38:26;24.30;98.30
14771;DHT22;7477;45.222;5.688;2023-05-27T16:41:45;24.20;98.10
14771;DHT22;7477;45.222;5.688;2023-05-27T16:45:05;23.90;98.40
14771;DHT22;7477;45.222;5.688;2023-05-27T16:48:25;23.80;98.60
14771;DHT22;7477;45.222;5.688;2023-05-27T16:51:44;23.70;98.90
14771;DHT22;7477;45.222;5.688;2023-05-27T16:55:05;23.90;98.60
14771;DHT22;7477;45.222;5.688;2023-05-27T16:58:25;23.90;98.70
14771;DHT22;7477;45.222;5.688;2023-05-27T17:01:45;23.70;98.80
14771;DHT22;7477;45.222;5.688;2023-05-27T17:05:05;23.70;99.00
14771;DHT22;7477;45.222;5.688;2023-05-27T17:08:24;23.70;99.10
14771;DHT22;7477;45.222;5.688;2023-05-27T17:11:44;23.60;99.10
14771;DHT22;7477;45.222;5.688;2023-05-27T17:15:04;23.80;99.60
14771;DHT22;7477;45.222;5.688;2023-05-27T17:18:23;23.70;99.00
14771;DHT22;7477;45.222;5.688;2023-05-27T17:21:42;23.60;99.30
14771;DHT22;7477;45.222;5.688;2023-05-27T17:25:01;23.70;99.40
14771;DHT22;7477;45.222;5.688;2023-05-27T17:28:21;23.60;99.40
14771;DHT22;7477;45.222;5.688;2023-05-27T17:31:40;23.50;99.30
14771;DHT22;7477;45.222;5.688;2023-05-27T17:34:59;23.40;99.50
14771;DHT22;7477;45.222;5.688;2023-05-27T17:38:19;23.70;99.40
14771;DHT22;7477;45.222;5.688;2023-05-27T17:41:40;23.60;99.40
14771;DHT22;7477;45.222;5.688;2023-05-27T17:44:59;23.50;99.50
14771;DHT22;7477;45.222;5.688;2023-05-27T17:48:18;23.60;99.50
14771;DHT22;7477;45.222;5.688;2023-05-27T17:51:37;23.50;99.50
14771;DHT22;7477;45.222;5.688;2023-05-27T17:54:57;23.60;99.60
14771;DHT22;7477;45.222;5.688;2023-05-27T17:58:16;23.70;99.50
14771;DHT22;7477;45.222;5.688;2023-05-27T18:01:35;23.80;99.40
14771;DHT22;7477;45.222;5.688;2023-05-27T18:04:55;24.20;99.10
14771;DHT22;7477;45.222;5.688;2023-05-27T18:08:14;24.10;99.10
14771;DHT22;7477;45.222;5.688;2023-05-27T18:11:34;23.70;99.40
14771;DHT22;7477;45.222;5.688;2023-05-27T18:14:54;23.60;99.70
14771;DHT22;7477;45.222;5.688;2023-05-27T18:18:13;23.80;99.90
14771;DHT22;7477;45.222;5.688;2023-05-27T18:21:33;24.30;99.80
14771;DHT22;7477;45.222;5.688;2023-05-27T18:24:52;24.60;99.90
14771;DHT22;7477;45.222;5.688;2023-05-27T18:28:11;24.50;99.90
14771;DHT22;7477;45.222;5.688;2023-05-27T18:31:30;24.90;99.90
14771;DHT22;7477;45.222;5.688;2023-05-27T18:34:50;24.60;98.30
14771;DHT22;7477;45.222;5.688;2023-05-27T18:38:09;24.60;98.00
14771;DHT22;7477;45.222;5.688;2023-05-27T18:41:28;24.40;98.20
14771;DHT22;7477;45.222;5.688;2023-05-27T18:44:47;24.60;96.80
14771;DHT22;7477;45.222;5.688;2023-05-27T18:48:07;24.80;95.80
14771;DHT22;7477;45.222;5.688;2023-05-27T18:51:26;24.70;96.20
14771;DHT22;7477;45.222;5.688;2023-05-27T18:54:45;24.70;95.40
14771;DHT22;7477;45.222;5.688;2023-05-27T18:58:05;24.70;95.30
14771;DHT22;7477;45.222;5.688;2023-05-27T19:01:25;24.60;95.50
14771;DHT22;7477;45.222;5.688;2023-05-27T19:04:44;24.60;95.70
14771;DHT22;7477;45.222;5.688;2023-05-27T19:08:04;24.50;96.20
14771;DHT22;7477;45.222;5.688;2023-05-27T19:11:23;24.50;96.70
14771;DHT22;7477;45.222;5.688;2023-05-27T19:14:43;24.40;96.70
14771;DHT22;7477;45.222;5.688;2023-05-27T19:18:03;24.30;97.00
14771;DHT22;7477;45.222;5.688;2023-05-27T19:21:23;24.30;97.20
14771;DHT22;7477;45.222;5.688;2023-05-27T19:24:43;24.20;97.50
14771;DHT22;7477;45.222;5.688;2023-05-27T19:28:02;24.20;97.70
14771;DHT22;7477;45.222;5.688;2023-05-27T19:31:21;24.00;97.80
14771;DHT22;7477;45.222;5.688;2023-05-27T19:34:40;24.00;97.90
14771;DHT22;7477;45.222;5.688;2023-05-27T19:37:59;24.00;98.10
14771;DHT22;7477;45.222;5.688;2023-05-27T19:41:19;23.90;98.40
14771;DHT22;7477;45.222;5.688;2023-05-27T19:44:38;23.90;98.80
14771;DHT22;7477;45.222;5.688;2023-05-27T19:47:57;23.90;98.90
14771;DHT22;7477;45.222;5.688;2023-05-27T19:51:17;23.80;98.80
14771;DHT22;7477;45.222;5.688;2023-05-27T19:54:36;23.80;99.10
14771;DHT22;7477;45.222;5.688;2023-05-27T19:57:55;23.80;99.10
14771;DHT22;7477;45.222;5.688;2023-05-27T20:01:14;23.80;99.10
14771;DHT22;7477;45.222;5.688;2023-05-27T20:04:34;23.80;99.10
14771;DHT22;7477;45.222;5.688;2023-05-27T20:07:54;23.70;99.10
14771;DHT22;7477;45.222;5.688;2023-05-27T20:11:13;23.70;99.10
14771;DHT22;7477;45.222;5.688;2023-05-27T20:14:33;23.70;99.40
14771;DHT22;7477;45.222;5.688;2023-05-27T20:17:53;23.70;99.40
14771;DHT22;7477;45.222;5.688;2023-05-27T20:21:12;23.60;99.70
14771;DHT22;7477;45.222;5.688;2023-05-27T20:24:31;23.50;99.90
14771;DHT22;7477;45.222;5.688;2023-05-27T20:27:50;23.50;99.90
14771;DHT22;7477;45.222;5.688;2023-05-27T20:31:12;23.30;99.90
14771;DHT22;7477;45.222;5.688;2023-05-27T20:34:31;23.30;99.90
14771;DHT22;7477;45.222;5.688;2023-05-27T20:37:51;23.20;99.90
14771;DHT22;7477;45.222;5.688;2023-05-27T20:41:10;23.30;99.90
14771;DHT22;7477;45.222;5.688;2023-05-27T20:44:29;23.30;99.80
14771;DHT22;7477;45.222;5.688;2023-05-27T20:47:48;23.20;99.90
14771;DHT22;7477;45.222;5.688;2023-05-27T20:51:07;23.00;99.90
14771;DHT22;7477;45.222;5.688;2023-05-27T20:54:27;22.90;99.90
14771;DHT22;7477;45.222;5.688;2023-05-27T20:57:46;22.90;99.90
14771;DHT22;7477;45.222;5.688;2023-05-27T21:01:05;22.90;99.90
14771;DHT22;7477;45.222;5.688;2023-05-27T21:04:25;22.90;99.90
14771;DHT22;7477;45.222;5.688;2023-05-27T21:07:44;23.00;99.90
14771;DHT22;7477;45.222;5.688;2023-05-27T21:11:03;23.00;99.90
14771;DHT22;7477;45.222;5.688;2023-05-27T21:14:23;22.80;99.90
14771;DHT22;7477;45.222;5.688;2023-05-27T21:17:42;22.70;99.90
14771;DHT22;7477;45.222;5.688;2023-05-27T21:21:01;22.70;99.90